createdAt,value
2023-04-11T00:00:39.100Z,85.25
2023-04-11T00:03:13.695Z,85.40
2023-04-11T00:05:41.730Z,85.57
2023-04-11T00:08:09.420Z,85.68
2023-04-11T00:10:37.354Z,85.73
2023-04-11T00:13:07.394Z,85.77
2023-04-11T00:15:35.484Z,85.90
2023-04-11T00:18:03.995Z,86.03
2023-04-11T00:20:31.797Z,86.09
2023-04-11T00:22:59.674Z,86.11
2023-04-11T00:25:27.860Z,86.15
2023-04-11T00:27:55.605Z,86.23
2023-04-11T00:30:23.314Z,86.33
2023-04-11T00:32:51.246Z,86.43
2023-04-11T00:35:20.196Z,86.50
2023-04-11T00:37:54.196Z,86.49
2023-04-11T00:40:22.576Z,86.46
2023-04-11T00:42:50.413Z,86.41
2023-04-11T00:45:18.342Z,86.36
2023-04-11T00:47:46.201Z,86.33
2023-04-11T00:50:15.957Z,86.29
2023-04-11T00:52:46.352Z,86.31
2023-04-11T00:55:14.430Z,86.16
2023-04-11T00:57:43.569Z,86.23
2023-04-11T01:00:12.483Z,86.34
2023-04-11T01:02:43.652Z,86.41
2023-04-11T01:05:14.804Z,86.68
2023-04-11T01:07:45.723Z,86.92
2023-04-11T01:10:15.155Z,87.17
2023-04-11T01:12:44.194Z,87.36
2023-04-11T01:15:12.106Z,87.49
2023-04-11T01:17:41.811Z,87.58
2023-04-11T01:20:11.666Z,87.54
2023-04-11T01:22:41.011Z,87.58
2023-04-11T01:25:09.397Z,87.67
2023-04-11T01:27:37.862Z,87.74
2023-04-11T01:30:06.900Z,87.80
2023-04-11T01:32:35.380Z,87.86
2023-04-11T01:35:05.317Z,87.90
2023-04-11T01:37:33.276Z,87.96
2023-04-11T01:40:02.127Z,88.02
2023-04-11T01:42:32.536Z,88.05
2023-04-11T01:45:01.092Z,87.95
2023-04-11T01:47:28.842Z,87.84
2023-04-11T01:49:56.577Z,87.80
2023-04-11T01:52:25.369Z,87.75
2023-04-11T01:54:53.061Z,87.71
2023-04-11T01:57:20.977Z,87.68
2023-04-11T01:59:48.826Z,87.61
2023-04-11T02:02:16.921Z,87.49
2023-04-11T02:04:45.269Z,87.40
2023-04-11T02:07:15.447Z,87.29
2023-04-11T02:09:43.204Z,87.19
2023-04-11T02:12:11.076Z,87.07
2023-04-11T02:14:44.401Z,86.98
2023-04-11T02:17:14.193Z,86.94
2023-04-11T02:19:42.154Z,86.92
2023-04-11T02:22:09.990Z,86.89
2023-04-11T02:24:38.826Z,86.84
2023-04-11T02:27:07.671Z,86.77
2023-04-11T02:29:35.670Z,86.66
2023-04-11T02:32:03.552Z,86.51
2023-04-11T02:34:31.422Z,86.37
2023-04-11T02:36:59.115Z,86.28
2023-04-11T02:39:27.084Z,86.20
2023-04-11T02:41:57.434Z,86.13
2023-04-11T02:44:26.389Z,86.13
2023-04-11T02:46:56.266Z,86.16
2023-04-11T02:49:25.598Z,86.20
2023-04-11T02:51:53.651Z,86.10
2023-04-11T02:54:21.357Z,86.09
2023-04-11T02:56:49.511Z,86.20
2023-04-11T02:59:17.313Z,86.17
2023-04-11T03:01:45.437Z,86.19
2023-04-11T03:04:13.425Z,86.22
2023-04-11T03:07:01.454Z,86.46
2023-04-11T03:09:30.063Z,86.74
2023-04-11T03:11:57.947Z,87.08
2023-04-11T03:14:25.698Z,86.52
2023-04-11T03:16:53.368Z,85.28
2023-04-11T03:19:21.237Z,85.46
2023-04-11T03:21:49.090Z,86.43
2023-04-11T03:24:17.839Z,87.19
2023-04-11T03:26:45.789Z,86.94
2023-04-11T03:29:16.688Z,86.97
2023-04-11T03:31:55.691Z,87.13
2023-04-11T03:34:23.546Z,87.51
2023-04-11T03:36:51.894Z,87.91
2023-04-11T03:39:21.816Z,88.08
2023-04-11T03:41:49.870Z,88.13
2023-04-11T03:44:17.733Z,88.10
2023-04-11T03:46:46.677Z,88.21
2023-04-11T03:49:14.846Z,88.14
2023-04-11T03:51:43.139Z,88.06
2023-04-11T03:54:11.291Z,88.20
2023-04-11T03:56:41.102Z,87.76
2023-04-11T03:59:12.911Z,86.83
2023-04-11T04:02:07.050Z,86.00
2023-04-11T04:04:38.517Z,86.45
2023-04-11T04:07:23.990Z,86.92
2023-04-11T04:09:54.114Z,87.37
2023-04-11T04:12:22.046Z,87.42
2023-04-11T04:15:07.594Z,87.08
2023-04-11T04:17:36.243Z,86.66
2023-04-11T04:20:07.080Z,85.83
2023-04-11T04:22:40.053Z,85.87
2023-04-11T04:25:12.627Z,86.54
2023-04-11T04:27:44.523Z,87.19
2023-04-11T04:30:15.415Z,87.50
2023-04-11T04:32:58.901Z,87.56
2023-04-11T04:35:27.122Z,87.47
2023-04-11T04:37:55.624Z,87.09
2023-04-11T04:40:33.040Z,87.45
2023-04-11T04:43:04.160Z,87.51
2023-04-11T04:45:47.589Z,87.57
2023-04-11T04:48:19.710Z,87.21
2023-04-11T04:50:48.317Z,87.83
2023-04-11T04:53:16.362Z,87.76
2023-04-11T04:55:47.586Z,87.24
2023-04-11T04:58:16.350Z,87.70
2023-04-11T05:00:44.706Z,87.50
2023-04-11T05:03:21.003Z,87.71
2023-04-11T05:05:49.639Z,87.76
2023-04-11T05:08:20.899Z,87.47
2023-04-11T05:10:48.816Z,87.58
2023-04-11T05:13:16.613Z,87.38
2023-04-11T05:15:51.284Z,87.50
2023-04-11T05:18:19.512Z,87.65
2023-04-11T05:20:47.229Z,87.71
2023-04-11T05:23:19.695Z,87.46
2023-04-11T05:25:48.037Z,87.22
2023-04-11T05:28:16.246Z,87.65
2023-04-11T05:30:44.039Z,87.33
2023-04-11T05:33:14.537Z,87.24
2023-04-11T05:35:43.201Z,86.93
2023-04-11T05:38:11.112Z,86.87
2023-04-11T05:40:40.297Z,86.85
2023-04-11T05:43:08.582Z,86.89
2023-04-11T05:45:36.383Z,86.98
2023-04-11T05:48:08.062Z,86.79
2023-04-11T05:50:36.485Z,86.97
2023-04-11T05:53:04.884Z,86.80
2023-04-11T05:55:33.134Z,86.46
2023-04-11T05:58:01.016Z,86.24
2023-04-11T06:00:31.163Z,86.28
2023-04-11T06:03:00.388Z,86.14
2023-04-11T06:05:31.566Z,86.01
2023-04-11T06:07:59.993Z,85.91
2023-04-11T06:10:29.013Z,85.88
2023-04-11T06:12:57.887Z,85.78
2023-04-11T06:15:29.170Z,85.64
2023-04-11T06:17:57.009Z,85.42
2023-04-11T06:20:25.069Z,85.19
2023-04-11T06:22:52.941Z,84.98
2023-04-11T06:25:21.635Z,84.73
2023-04-11T06:27:50.159Z,84.55
2023-04-11T06:30:17.943Z,84.37
2023-04-11T06:32:45.745Z,84.11
2023-04-11T06:35:13.553Z,83.67
2023-04-11T06:37:42.361Z,83.43
2023-04-11T06:40:10.722Z,83.33
2023-04-11T06:42:38.422Z,83.08
2023-04-11T06:45:06.949Z,82.83
2023-04-11T06:47:34.667Z,82.33
2023-04-11T06:50:02.572Z,81.98
2023-04-11T06:52:30.593Z,81.47
2023-04-11T06:54:58.359Z,81.13
2023-04-11T06:57:26.291Z,80.72
2023-04-11T06:59:53.976Z,80.33
2023-04-11T07:02:24.925Z,79.87
2023-04-11T07:04:53.529Z,79.61
2023-04-11T07:07:21.453Z,79.34
2023-04-11T07:09:49.223Z,79.33
2023-04-11T07:12:16.899Z,79.20
2023-04-11T07:14:44.612Z,78.96
2023-04-11T07:17:12.389Z,78.62
2023-04-11T07:19:40.663Z,78.10
2023-04-11T07:22:08.639Z,77.79
2023-04-11T07:24:36.353Z,77.24
2023-04-11T07:27:04.869Z,76.63
2023-04-11T07:29:32.755Z,76.30
2023-04-11T07:32:00.619Z,76.38
2023-04-11T07:34:28.479Z,76.40
2023-04-11T07:37:00.885Z,75.94
2023-04-11T07:39:28.744Z,74.87
2023-04-11T07:41:56.850Z,74.11
2023-04-11T07:44:27.239Z,72.98
2023-04-11T07:46:55.391Z,72.79
2023-04-11T07:49:23.386Z,73.02
2023-04-11T07:51:51.110Z,73.29
2023-04-11T07:54:18.925Z,73.28
2023-04-11T07:56:46.649Z,72.51
2023-04-11T07:59:16.116Z,71.39
2023-04-11T08:01:44.794Z,70.60
2023-04-11T08:04:12.992Z,70.00
2023-04-11T08:06:41.449Z,70.01
2023-04-11T08:09:09.191Z,69.75
2023-04-11T08:11:36.990Z,67.78
2023-04-11T08:14:04.976Z,66.65
2023-04-11T08:16:34.326Z,66.99
2023-04-11T08:19:02.376Z,66.40
2023-04-11T08:21:30.165Z,65.47
2023-04-11T08:23:58.109Z,65.00
2023-04-11T08:26:25.955Z,63.95
2023-04-11T08:28:53.756Z,63.13
2023-04-11T08:31:21.520Z,62.54
2023-04-11T08:33:49.242Z,61.99
2023-04-11T08:36:17.179Z,61.64
2023-04-11T08:38:45.118Z,60.97
2023-04-11T08:41:12.896Z,60.36
2023-04-11T08:43:40.708Z,60.43
2023-04-11T08:46:08.549Z,59.86
2023-04-11T08:48:36.648Z,60.17
2023-04-11T08:51:04.653Z,59.96
2023-04-11T08:53:36.627Z,59.82
2023-04-11T08:56:04.520Z,60.12
2023-04-11T08:58:32.443Z,60.49
2023-04-11T09:01:26.154Z,60.62
2023-04-11T09:03:55.320Z,60.39
2023-04-11T09:06:24.323Z,58.92
2023-04-11T09:08:52.320Z,57.85
2023-04-11T09:11:20.802Z,56.14
2023-04-11T09:14:05.923Z,55.59
2023-04-11T09:16:34.231Z,54.26
2023-04-11T09:19:02.144Z,53.85
2023-04-11T09:21:31.147Z,53.57
2023-04-11T09:24:15.766Z,53.01
2023-04-11T09:26:43.680Z,51.81
2023-04-11T09:29:11.876Z,50.97
2023-04-11T09:31:44.625Z,49.61
2023-04-11T09:34:13.377Z,49.00
2023-04-11T09:36:41.156Z,48.37
2023-04-11T09:39:18.748Z,47.39
2023-04-11T09:41:46.964Z,46.52
2023-04-11T09:44:14.787Z,46.95
2023-04-11T09:46:59.712Z,46.53
2023-04-11T09:49:27.897Z,46.28
2023-04-11T09:51:57.128Z,46.90
2023-04-11T09:54:26.415Z,47.22
2023-04-11T09:56:54.398Z,47.03
2023-04-11T09:59:23.405Z,46.56
2023-04-11T10:01:51.860Z,46.51
2023-04-11T10:04:20.508Z,44.75
2023-04-11T10:07:09.038Z,44.38
2023-04-11T10:09:43.471Z,44.33
2023-04-11T10:12:11.690Z,43.45
2023-04-11T10:14:39.857Z,42.03
2023-04-11T10:17:17.680Z,41.64
2023-04-11T10:19:48.628Z,42.10
2023-04-11T10:22:48.844Z,40.77
2023-04-11T10:25:21.812Z,40.32
2023-04-11T10:27:53.561Z,39.51
2023-04-11T10:31:01.766Z,39.94
2023-04-11T10:33:30.578Z,39.78
2023-04-11T10:36:10.042Z,39.86
2023-04-11T10:38:44.210Z,39.73
2023-04-11T10:41:27.800Z,39.15
2023-04-11T10:44:19.565Z,38.35
2023-04-11T10:46:55.346Z,36.79
2023-04-11T10:49:32.630Z,36.63
2023-04-11T10:52:21.657Z,36.49
2023-04-11T10:54:53.898Z,36.61
2023-04-11T10:57:23.183Z,36.30
2023-04-11T10:59:51.097Z,36.63
2023-04-11T11:02:20.133Z,36.81
2023-04-11T11:04:49.315Z,37.21
2023-04-11T11:07:17.599Z,38.19
2023-04-11T11:09:52.607Z,39.22
2023-04-11T11:12:20.462Z,39.59
2023-04-11T11:14:48.175Z,39.89
2023-04-11T11:17:17.000Z,40.05
2023-04-11T11:19:46.441Z,39.87
2023-04-11T11:22:15.725Z,39.68
2023-04-11T11:24:43.724Z,39.99
2023-04-11T11:27:22.918Z,40.11
2023-04-11T11:29:51.850Z,39.41
2023-04-11T11:32:32.776Z,39.03
2023-04-11T11:35:12.651Z,38.39
2023-04-11T11:37:41.860Z,37.80
2023-04-11T11:40:15.387Z,38.11
2023-04-11T11:42:43.409Z,37.92
2023-04-11T11:45:29.319Z,37.49
2023-04-11T11:47:57.167Z,37.32
2023-04-11T11:50:26.969Z,37.64
2023-04-11T11:52:56.556Z,37.44
2023-04-11T11:55:24.757Z,37.40
2023-04-11T11:57:52.495Z,37.89
2023-04-11T12:00:25.184Z,38.37
2023-04-11T12:02:54.986Z,38.51
2023-04-11T12:05:33.125Z,37.87
2023-04-11T12:08:04.390Z,38.12
2023-04-11T12:10:41.955Z,38.46
2023-04-11T12:13:13.105Z,38.47
2023-04-11T12:15:43.711Z,38.90
2023-04-11T12:18:11.912Z,38.59
2023-04-11T12:20:39.709Z,38.29
2023-04-11T12:23:07.589Z,37.57
2023-04-11T12:25:35.432Z,37.74
2023-04-11T12:28:03.216Z,37.93
2023-04-11T12:30:30.931Z,38.51
2023-04-11T12:32:59.027Z,38.32
2023-04-11T12:35:27.524Z,38.34
2023-04-11T12:37:55.781Z,37.85
2023-04-11T12:40:24.485Z,37.78
2023-04-11T12:42:56.152Z,37.73
2023-04-11T12:45:25.907Z,37.15
2023-04-11T12:47:54.033Z,36.85
2023-04-11T12:50:24.084Z,36.61
2023-04-11T12:52:53.096Z,36.49
2023-04-11T12:55:21.736Z,36.81
2023-04-11T12:57:50.507Z,37.04
2023-04-11T13:00:18.932Z,37.45
2023-04-11T13:02:47.009Z,37.53
2023-04-11T13:05:16.573Z,37.86
2023-04-11T13:07:45.187Z,38.84
2023-04-11T13:10:16.042Z,39.42
2023-04-11T13:12:44.974Z,39.78
2023-04-11T13:15:17.203Z,39.79
2023-04-11T13:17:45.488Z,39.48
2023-04-11T13:20:13.818Z,38.97
2023-04-11T13:22:43.059Z,38.88
2023-04-11T13:25:11.990Z,39.31
2023-04-11T13:27:40.949Z,39.19
2023-04-11T13:30:10.660Z,37.92
2023-04-11T13:32:38.780Z,37.72
2023-04-11T13:35:07.558Z,38.17
2023-04-11T13:37:35.406Z,38.21
2023-04-11T13:40:06.758Z,38.10
2023-04-11T13:42:35.137Z,37.83
2023-04-11T13:45:03.035Z,37.17
2023-04-11T13:47:30.944Z,36.98
2023-04-11T13:49:58.676Z,37.16
2023-04-11T13:52:27.384Z,36.02
2023-04-11T13:54:55.212Z,35.71
2023-04-11T13:57:23.115Z,35.86
2023-04-11T13:59:50.990Z,35.98
2023-04-11T14:02:19.035Z,36.48
2023-04-11T14:04:47.015Z,37.12
2023-04-11T14:07:14.829Z,37.22
2023-04-11T14:09:42.605Z,36.12
2023-04-11T14:12:10.439Z,35.96
2023-04-11T14:14:38.220Z,36.46
2023-04-11T14:17:06.316Z,37.21
2023-04-11T14:19:34.152Z,37.48
2023-04-11T14:22:02.205Z,36.84
2023-04-11T14:24:29.942Z,36.86
2023-04-11T14:26:57.754Z,37.40
2023-04-11T14:29:26.411Z,37.83
2023-04-11T14:31:54.423Z,37.67
2023-04-11T14:34:22.480Z,37.74
2023-04-11T14:36:50.354Z,37.46
2023-04-11T14:39:18.119Z,37.64
2023-04-11T14:41:46.028Z,37.82
2023-04-11T14:44:13.986Z,37.62
2023-04-11T14:46:42.225Z,37.81
2023-04-11T14:49:10.081Z,38.18
2023-04-11T14:51:37.901Z,38.06
2023-04-11T14:54:06.637Z,37.67
2023-04-11T14:56:34.674Z,37.70
2023-04-11T14:59:02.559Z,37.38
2023-04-11T15:01:30.747Z,37.35
2023-04-11T15:03:58.811Z,37.46
2023-04-11T15:06:26.776Z,37.72
2023-04-11T15:08:54.539Z,38.16
2023-04-11T15:11:22.260Z,38.39
2023-04-11T15:13:52.924Z,38.57
2023-04-11T15:16:23.631Z,38.49
2023-04-11T15:18:51.367Z,38.98
2023-04-11T15:21:19.100Z,39.33
2023-04-11T15:23:47.227Z,39.52
2023-04-11T15:26:15.077Z,39.89
2023-04-11T15:28:43.752Z,40.55
2023-04-11T15:31:14.613Z,40.88
2023-04-11T15:33:43.218Z,41.16
2023-04-11T15:36:11.492Z,41.52
2023-04-11T15:38:39.705Z,41.58
2023-04-11T15:41:07.635Z,41.83
2023-04-11T15:43:35.519Z,42.13
2023-04-11T15:46:06.932Z,42.36
2023-04-11T15:48:34.932Z,42.54
2023-04-11T15:51:11.728Z,42.65
2023-04-11T15:53:40.077Z,42.78
2023-04-11T15:56:08.337Z,42.90
2023-04-11T15:58:36.376Z,43.35
2023-04-11T16:01:04.363Z,43.61
2023-04-11T16:03:33.002Z,43.92
2023-04-11T16:06:01.559Z,43.86
2023-04-11T16:08:29.494Z,43.95
2023-04-11T16:10:57.984Z,43.91
2023-04-11T16:13:25.797Z,44.15
2023-04-11T16:15:53.679Z,44.16
2023-04-11T16:18:21.489Z,44.17
2023-04-11T16:20:49.192Z,44.55
2023-04-11T16:23:16.990Z,44.81
2023-04-11T16:25:45.625Z,45.12
2023-04-11T16:28:15.363Z,45.44
2023-04-11T16:30:43.625Z,45.73
2023-04-11T16:33:12.988Z,45.66
2023-04-11T16:35:42.147Z,46.08
2023-04-11T16:38:10.205Z,46.30
2023-04-11T16:40:38.024Z,46.67
2023-04-11T16:43:06.118Z,46.97
2023-04-11T16:45:33.885Z,47.23
2023-04-11T16:48:01.674Z,47.56
2023-04-11T16:50:29.474Z,47.64
2023-04-11T16:52:57.356Z,48.06
2023-04-11T16:55:25.163Z,48.45
2023-04-11T16:57:53.403Z,48.58
2023-04-11T17:00:21.711Z,48.76
2023-04-11T17:02:49.694Z,49.06
2023-04-11T17:05:19.384Z,49.31
2023-04-11T17:07:47.178Z,49.44
2023-04-11T17:10:15.540Z,49.92
2023-04-11T17:12:43.255Z,50.27
2023-04-11T17:15:12.256Z,50.57
2023-04-11T17:17:40.568Z,50.87
2023-04-11T17:20:10.309Z,51.11
2023-04-11T17:22:41.425Z,51.44
2023-04-11T17:25:10.271Z,51.27
2023-04-11T17:27:38.483Z,51.93
2023-04-11T17:30:09.527Z,52.47
2023-04-11T17:32:38.971Z,52.79
2023-04-11T17:35:07.339Z,53.37
2023-04-11T17:37:36.125Z,53.68
2023-04-11T17:40:11.147Z,53.81
2023-04-11T17:42:40.081Z,53.72
2023-04-11T17:45:17.556Z,53.89
2023-04-11T17:47:47.296Z,53.96
2023-04-11T17:50:15.798Z,54.76
2023-04-11T17:52:46.451Z,54.44
2023-04-11T17:55:16.328Z,55.19
2023-04-11T17:57:46.216Z,55.59
2023-04-11T18:00:23.143Z,55.56
2023-04-11T18:02:54.549Z,56.39
2023-04-11T18:05:25.870Z,55.94
2023-04-11T18:07:58.677Z,56.24
2023-04-11T18:10:27.971Z,56.57
2023-04-11T18:12:57.398Z,56.40
2023-04-11T18:15:26.460Z,55.90
2023-04-11T18:17:54.508Z,56.79
2023-04-11T18:20:22.841Z,56.82
2023-04-11T18:22:56.040Z,57.31
2023-04-11T18:25:24.541Z,57.37
2023-04-11T18:27:52.482Z,57.91
2023-04-11T18:30:20.481Z,58.32
2023-04-11T18:32:51.010Z,58.43
2023-04-11T18:35:19.670Z,58.62
2023-04-11T18:37:47.843Z,59.23
2023-04-11T18:40:16.863Z,58.79
2023-04-11T18:42:47.933Z,60.06
2023-04-11T18:45:23.184Z,60.85
2023-04-11T18:47:51.626Z,61.35
2023-04-11T18:50:20.349Z,61.34
2023-04-11T18:52:52.757Z,61.59
2023-04-11T18:55:23.951Z,61.85
2023-04-11T18:57:54.239Z,62.22
2023-04-11T19:00:25.061Z,62.44
2023-04-11T19:02:53.488Z,62.34
2023-04-11T19:05:25.291Z,62.13
2023-04-11T19:07:53.815Z,62.42
2023-04-11T19:10:21.975Z,62.51
2023-04-11T19:12:49.725Z,63.13
2023-04-11T19:15:18.740Z,63.45
2023-04-11T19:17:46.604Z,63.75
2023-04-11T19:20:16.612Z,63.95
2023-04-11T19:22:46.233Z,64.19
2023-04-11T19:25:14.743Z,64.45
2023-04-11T19:27:43.363Z,64.10
2023-04-11T19:30:13.621Z,64.66
2023-04-11T19:32:44.040Z,64.83
2023-04-11T19:35:13.204Z,65.12
2023-04-11T19:37:41.317Z,65.35
2023-04-11T19:40:13.865Z,65.56
2023-04-11T19:42:43.156Z,65.76
2023-04-11T19:45:12.259Z,65.56
2023-04-11T19:47:41.287Z,66.34
2023-04-11T19:50:15.594Z,66.81
2023-04-11T19:52:43.788Z,67.19
2023-04-11T19:55:12.559Z,67.53
2023-04-11T19:57:43.328Z,67.53
2023-04-11T20:00:16.402Z,67.63
2023-04-11T20:02:48.044Z,67.81
2023-04-11T20:05:18.956Z,67.86
2023-04-11T20:07:47.813Z,68.14
2023-04-11T20:10:16.418Z,68.26
2023-04-11T20:12:44.676Z,68.40
2023-04-11T20:15:13.069Z,68.61
2023-04-11T20:17:41.782Z,69.24
2023-04-11T20:20:12.227Z,69.28
2023-04-11T20:22:40.500Z,69.29
2023-04-11T20:25:11.269Z,69.25
2023-04-11T20:27:40.320Z,69.13
2023-04-11T20:30:10.598Z,68.96
2023-04-11T20:32:40.017Z,68.52
2023-04-11T20:35:09.777Z,69.39
2023-04-11T20:37:40.078Z,68.73
2023-04-11T20:40:09.943Z,69.00
2023-04-11T20:42:45.691Z,69.90
2023-04-11T20:45:15.632Z,70.55
2023-04-11T20:47:46.240Z,70.55
2023-04-11T20:50:15.798Z,71.52
2023-04-11T20:52:45.567Z,72.84
2023-04-11T20:55:14.552Z,71.94
2023-04-11T20:57:42.646Z,73.48
2023-04-11T21:00:17.674Z,74.08
2023-04-11T21:02:49.732Z,73.70
2023-04-11T21:05:22.176Z,74.50
2023-04-11T21:07:50.158Z,73.99
2023-04-11T21:10:20.795Z,73.83
2023-04-11T21:12:51.957Z,75.07
2023-04-11T21:15:20.819Z,75.66
2023-04-11T21:17:48.835Z,75.02
2023-04-11T21:20:20.194Z,75.55
2023-04-11T21:22:49.706Z,75.62
2023-04-11T21:25:17.940Z,76.45
2023-04-11T21:27:46.778Z,77.10
2023-04-11T21:30:14.890Z,76.84
2023-04-11T21:32:42.827Z,76.68
2023-04-11T21:35:11.766Z,77.13
2023-04-11T21:37:39.567Z,77.07
2023-04-11T21:40:09.231Z,77.21
2023-04-11T21:42:39.778Z,77.23
2023-04-11T21:45:08.679Z,75.97
2023-04-11T21:47:36.500Z,75.95
2023-04-11T21:50:04.427Z,76.27
2023-04-11T21:52:32.406Z,76.26
2023-04-11T21:55:00.114Z,76.44
2023-04-11T21:57:28.002Z,75.80
2023-04-11T21:59:55.768Z,76.10
2023-04-11T22:02:23.889Z,77.33
2023-04-11T22:05:06.601Z,77.87
2023-04-11T22:07:48.391Z,78.27
2023-04-11T22:10:23.630Z,78.94
2023-04-11T22:12:54.428Z,78.61
2023-04-11T22:15:24.511Z,77.53
2023-04-11T22:17:54.565Z,77.54
2023-04-11T22:20:22.631Z,77.75
2023-04-11T22:22:50.633Z,78.48
2023-04-11T22:25:20.428Z,78.04
2023-04-11T22:27:49.817Z,78.17
2023-04-11T22:30:17.776Z,78.99
2023-04-11T22:32:47.070Z,78.52
2023-04-11T22:35:15.545Z,79.11
2023-04-11T22:37:43.292Z,79.13
2023-04-11T22:40:12.344Z,78.90
2023-04-11T22:42:40.496Z,78.63
2023-04-11T22:45:09.107Z,78.56
2023-04-11T22:47:38.235Z,79.25
2023-04-11T22:50:06.598Z,79.25
2023-04-11T22:52:35.601Z,79.67
2023-04-11T22:55:05.559Z,80.24
2023-04-11T22:57:34.313Z,80.52
2023-04-11T23:00:04.838Z,80.71
2023-04-11T23:02:33.563Z,80.18
2023-04-11T23:05:02.955Z,80.74
2023-04-11T23:07:34.654Z,80.79
2023-04-11T23:10:05.592Z,80.70
2023-04-11T23:12:33.955Z,81.09
2023-04-11T23:15:02.529Z,81.70
2023-04-11T23:17:30.318Z,81.39
2023-04-11T23:19:59.409Z,81.86
2023-04-11T23:22:27.609Z,81.95
2023-04-11T23:24:55.432Z,82.51
2023-04-11T23:27:23.494Z,82.46
2023-04-11T23:29:52.731Z,82.27
2023-04-11T23:32:21.286Z,81.51
2023-04-11T23:34:49.470Z,81.61
2023-04-11T23:37:17.873Z,81.83
2023-04-11T23:39:45.599Z,81.90
2023-04-11T23:42:13.340Z,82.11
2023-04-11T23:44:41.391Z,82.48
2023-04-11T23:47:09.172Z,82.81
2023-04-11T23:49:36.934Z,83.19
2023-04-11T23:52:04.706Z,82.90
2023-04-11T23:54:32.465Z,82.28
2023-04-11T23:57:02.467Z,82.33
2023-04-11T23:59:31.839Z,82.67
